createdAt,value
2022-12-18T00:00:46.567Z,5.53
2022-12-18T00:03:13.780Z,6.43
2022-12-18T00:05:47.389Z,9.30
2022-12-18T00:08:14.507Z,8.90
2022-12-18T00:10:41.643Z,8.40
2022-12-18T00:13:10.236Z,7.13
2022-12-18T00:15:37.714Z,7.87
2022-12-18T00:18:06.718Z,8.90
2022-12-18T00:20:37.217Z,9.40
2022-12-18T00:23:04.319Z,9.57
2022-12-18T00:25:31.704Z,8.90
2022-12-18T00:27:58.798Z,8.33
2022-12-18T00:30:26.112Z,7.50
2022-12-18T00:32:53.180Z,9.07
2022-12-18T00:35:21.810Z,8.20
2022-12-18T00:37:48.897Z,9.03
2022-12-18T00:40:16.129Z,8.30
2022-12-18T00:42:43.212Z,8.90
2022-12-18T00:45:12.919Z,9.20
2022-12-18T00:47:40.639Z,8.90
2022-12-18T00:50:08.403Z,7.90
2022-12-18T00:52:36.883Z,8.17
2022-12-18T00:55:06.413Z,8.87
2022-12-18T00:57:33.858Z,8.97
2022-12-18T01:00:00.985Z,8.07
2022-12-18T01:02:28.229Z,7.60
2022-12-18T01:04:55.888Z,8.60
2022-12-18T01:07:23.017Z,9.63
2022-12-18T01:09:51.440Z,8.40
2022-12-18T01:12:18.540Z,8.20
2022-12-18T01:14:45.638Z,8.77
2022-12-18T01:17:12.753Z,8.67
2022-12-18T01:19:39.864Z,8.10
2022-12-18T01:22:09.112Z,8.60
2022-12-18T01:24:36.183Z,9.03
2022-12-18T01:27:04.658Z,8.77
2022-12-18T01:29:31.806Z,8.57
2022-12-18T01:31:58.988Z,8.17
2022-12-18T01:34:26.241Z,8.03
2022-12-18T01:36:53.365Z,8.03
2022-12-18T01:39:20.712Z,8.77
2022-12-18T01:41:48.173Z,10.20
2022-12-18T01:44:34.597Z,7.90
2022-12-18T01:47:03.331Z,7.93
2022-12-18T01:49:30.422Z,7.90
2022-12-18T01:51:57.660Z,8.80
2022-12-18T01:54:24.763Z,9.30
2022-12-18T01:56:51.936Z,9.50
2022-12-18T01:59:19.181Z,10.30
2022-12-18T02:01:46.570Z,8.73
2022-12-18T02:04:22.890Z,9.53
2022-12-18T02:06:52.441Z,9.17
2022-12-18T02:09:22.249Z,7.60
2022-12-18T02:11:52.139Z,8.73
2022-12-18T02:14:23.891Z,10.30
2022-12-18T02:16:54.230Z,8.33
2022-12-18T02:19:33.639Z,7.87
2022-12-18T02:22:07.640Z,8.90
2022-12-18T02:24:36.951Z,8.90
2022-12-18T02:27:06.850Z,8.63
2022-12-18T02:29:35.943Z,7.37
2022-12-18T02:32:04.800Z,8.27
2022-12-18T02:34:33.173Z,8.50
2022-12-18T02:37:02.641Z,8.63
2022-12-18T02:39:31.474Z,7.50
2022-12-18T02:42:03.691Z,7.70
2022-12-18T02:44:32.126Z,9.27
2022-12-18T02:46:59.253Z,8.83
2022-12-18T02:49:33.055Z,9.00
2022-12-18T02:52:05.932Z,7.33
2022-12-18T02:54:40.276Z,8.83
2022-12-18T02:57:14.746Z,7.90
2022-12-18T02:59:48.062Z,7.33
2022-12-18T03:02:19.396Z,8.57
2022-12-18T03:04:49.436Z,7.00
2022-12-18T03:07:20.185Z,7.53
2022-12-18T03:09:50.908Z,6.13
2022-12-18T03:12:20.409Z,6.90
2022-12-18T03:14:51.476Z,7.40
2022-12-18T03:17:21.008Z,7.67
2022-12-18T03:19:48.886Z,7.97
2022-12-18T03:22:16.945Z,8.90
2022-12-18T03:24:51.495Z,7.80
2022-12-18T03:27:20.098Z,7.33
2022-12-18T03:29:50.681Z,6.40
2022-12-18T03:32:25.281Z,8.40
2022-12-18T03:34:54.581Z,7.97
2022-12-18T03:37:23.609Z,7.57
2022-12-18T03:39:52.722Z,9.27
2022-12-18T03:42:25.037Z,8.07
2022-12-18T03:44:59.180Z,7.67
2022-12-18T03:47:29.255Z,10.37
2022-12-18T03:50:03.710Z,7.10
2022-12-18T03:52:37.833Z,7.63
2022-12-18T03:55:06.858Z,8.23
2022-12-18T03:57:35.278Z,6.80
2022-12-18T04:00:08.834Z,8.30
2022-12-18T04:02:43.330Z,6.83
2022-12-18T04:05:12.177Z,8.20
2022-12-18T04:07:42.060Z,7.70
2022-12-18T04:10:11.244Z,8.07
2022-12-18T04:12:38.700Z,7.70
2022-12-18T04:15:09.183Z,8.53
2022-12-18T04:17:36.559Z,7.90
2022-12-18T04:20:05.079Z,7.43
2022-12-18T04:22:32.790Z,8.10
2022-12-18T04:25:00.482Z,8.80
2022-12-18T04:27:35.522Z,8.30
2022-12-18T04:30:03.500Z,8.50
2022-12-18T04:32:32.668Z,7.93
2022-12-18T04:35:00.811Z,8.03
2022-12-18T04:37:28.083Z,7.93
2022-12-18T04:39:55.833Z,7.40
2022-12-18T04:42:31.201Z,6.73
2022-12-18T04:44:58.284Z,6.80
2022-12-18T04:47:25.423Z,7.33
2022-12-18T04:49:53.862Z,8.27
2022-12-18T04:52:25.406Z,7.63
2022-12-18T04:54:52.492Z,9.17
2022-12-18T04:57:19.716Z,7.80
2022-12-18T04:59:46.827Z,7.50
2022-12-18T05:02:14.070Z,6.20
2022-12-18T05:04:41.335Z,7.03
2022-12-18T05:07:09.800Z,7.20
2022-12-18T05:09:36.898Z,8.73
2022-12-18T05:12:04.151Z,6.77
2022-12-18T05:14:31.248Z,7.43
2022-12-18T05:17:01.039Z,8.00
2022-12-18T05:19:28.469Z,6.73
2022-12-18T05:21:55.597Z,6.43
2022-12-18T05:24:24.020Z,8.97
2022-12-18T05:26:51.211Z,9.33
2022-12-18T05:29:18.312Z,6.20
2022-12-18T05:31:45.440Z,7.27
2022-12-18T05:34:12.725Z,7.77
2022-12-18T05:36:40.117Z,9.00
2022-12-18T05:39:07.231Z,7.20
2022-12-18T05:41:35.686Z,8.67
2022-12-18T05:44:02.884Z,5.97
2022-12-18T05:46:30.170Z,8.60
2022-12-18T05:49:00.445Z,8.67
2022-12-18T05:51:27.530Z,7.33
2022-12-18T05:53:54.684Z,6.83
2022-12-18T05:56:22.442Z,7.83
2022-12-18T05:58:52.328Z,6.57
2022-12-18T06:01:20.593Z,7.13
2022-12-18T06:03:48.134Z,6.63
2022-12-18T06:06:15.920Z,7.43
2022-12-18T06:08:46.447Z,7.30
2022-12-18T06:11:14.430Z,7.70
2022-12-18T06:13:41.871Z,7.60
2022-12-18T06:16:10.541Z,8.37
2022-12-18T06:18:37.800Z,8.33
2022-12-18T06:21:05.172Z,7.73
2022-12-18T06:23:32.284Z,6.80
2022-12-18T06:25:59.388Z,7.50
2022-12-18T06:28:26.462Z,8.30
2022-12-18T06:30:53.563Z,7.27
2022-12-18T06:33:22.031Z,7.67
2022-12-18T06:35:49.121Z,8.40
2022-12-18T06:38:16.198Z,7.50
2022-12-18T06:40:43.310Z,7.40
2022-12-18T06:43:10.481Z,8.70
2022-12-18T06:45:37.640Z,8.33
2022-12-18T06:48:04.797Z,4.40
2022-12-18T06:50:33.286Z,8.70
2022-12-18T06:53:00.737Z,8.37
2022-12-18T06:55:27.988Z,8.50
2022-12-18T06:57:55.051Z,6.60
2022-12-18T07:00:22.163Z,7.50
2022-12-18T07:02:49.376Z,6.47
2022-12-18T07:05:16.652Z,7.80
2022-12-18T07:07:45.141Z,7.40
2022-12-18T07:10:12.329Z,8.57
2022-12-18T07:12:39.463Z,8.23
2022-12-18T07:15:07.246Z,8.00
2022-12-18T07:17:34.368Z,8.53
2022-12-18T07:20:01.459Z,8.13
2022-12-18T07:22:28.572Z,6.97
2022-12-18T07:24:56.998Z,7.20
2022-12-18T07:27:24.448Z,9.40
2022-12-18T07:29:51.691Z,8.07
2022-12-18T07:32:18.801Z,5.67
2022-12-18T07:34:45.906Z,7.90
2022-12-18T07:37:14.367Z,6.37
2022-12-18T07:39:41.951Z,7.80
2022-12-18T07:42:10.513Z,7.07
2022-12-18T07:44:40.681Z,6.23
2022-12-18T07:47:11.775Z,7.80
2022-12-18T07:49:39.569Z,6.00
2022-12-18T07:52:06.669Z,7.70
2022-12-18T07:54:33.754Z,7.33
2022-12-18T07:57:01.193Z,6.00
2022-12-18T07:59:29.611Z,9.27
2022-12-18T08:01:56.911Z,6.30
2022-12-18T08:04:24.172Z,7.20
2022-12-18T08:06:52.433Z,10.33
2022-12-18T08:09:19.576Z,8.90
2022-12-18T08:11:46.679Z,8.10
2022-12-18T08:14:13.781Z,6.63
2022-12-18T08:16:42.290Z,9.10
2022-12-18T08:19:09.428Z,7.77
2022-12-18T08:21:36.549Z,8.00
2022-12-18T08:24:03.776Z,8.33
2022-12-18T08:26:31.418Z,7.37
2022-12-18T08:28:59.132Z,7.73
2022-12-18T08:31:26.950Z,8.37
2022-12-18T08:33:55.908Z,7.23
2022-12-18T08:36:24.363Z,6.33
2022-12-18T08:38:52.809Z,8.97
2022-12-18T08:41:20.042Z,8.80
2022-12-18T08:43:47.138Z,9.13
2022-12-18T08:46:17.707Z,8.37
2022-12-18T08:48:45.078Z,9.07
2022-12-18T08:51:13.578Z,8.57
2022-12-18T08:53:41.114Z,8.33
2022-12-18T08:56:09.183Z,7.77
2022-12-18T08:58:36.290Z,7.43
2022-12-18T09:01:03.774Z,7.10
2022-12-18T09:03:31.104Z,8.80
2022-12-18T09:05:58.422Z,6.77
2022-12-18T09:08:26.864Z,7.30
2022-12-18T09:10:53.962Z,7.57
2022-12-18T09:13:21.063Z,7.10
2022-12-18T09:15:49.239Z,5.87
2022-12-18T09:18:17.121Z,8.60
2022-12-18T09:20:44.386Z,7.60
2022-12-18T09:23:11.549Z,8.67
2022-12-18T09:25:40.180Z,8.40
2022-12-18T09:28:07.892Z,9.30
2022-12-18T09:30:35.025Z,6.97
2022-12-18T09:33:02.849Z,8.93
2022-12-18T09:35:29.946Z,9.13
2022-12-18T09:37:57.035Z,6.67
2022-12-18T09:40:25.364Z,7.87
2022-12-18T09:42:55.975Z,7.73
2022-12-18T09:45:23.273Z,7.73
2022-12-18T09:47:51.577Z,6.23
2022-12-18T09:50:22.728Z,5.77
2022-12-18T09:52:50.876Z,7.80
2022-12-18T09:55:23.004Z,7.90
2022-12-18T09:57:52.955Z,7.13
2022-12-18T10:00:22.480Z,5.80
2022-12-18T10:02:50.469Z,7.20
2022-12-18T10:05:22.298Z,5.20
2022-12-18T10:07:55.260Z,7.40
2022-12-18T10:10:31.460Z,9.23
2022-12-18T10:13:04.683Z,7.90
2022-12-18T10:15:36.533Z,7.67
2022-12-18T10:18:09.711Z,7.37
2022-12-18T10:20:39.041Z,6.30
2022-12-18T10:23:13.497Z,5.43
2022-12-18T10:25:43.537Z,7.30
2022-12-18T10:28:12.640Z,7.73
2022-12-18T10:30:41.763Z,8.67
2022-12-18T10:33:11.842Z,6.33
2022-12-18T10:35:42.285Z,8.93
2022-12-18T10:38:22.023Z,6.80
2022-12-18T10:40:50.136Z,8.27
2022-12-18T10:43:20.731Z,5.83
2022-12-18T10:46:00.543Z,8.73
2022-12-18T10:48:28.228Z,7.07
2022-12-18T10:51:10.799Z,7.93
2022-12-18T10:53:41.445Z,9.50
2022-12-18T10:56:08.701Z,8.73
2022-12-18T10:58:36.652Z,6.50
2022-12-18T11:01:07.127Z,8.53
2022-12-18T11:03:35.140Z,6.50
2022-12-18T11:06:06.666Z,6.60
2022-12-18T11:08:34.123Z,6.43
2022-12-18T11:11:01.369Z,7.33
2022-12-18T11:13:30.091Z,6.90
2022-12-18T11:15:57.521Z,8.57
2022-12-18T11:18:28.174Z,8.60
2022-12-18T11:20:58.659Z,5.43
2022-12-18T11:23:26.541Z,6.73
2022-12-18T11:25:54.771Z,6.27
2022-12-18T11:28:36.817Z,7.70
2022-12-18T11:31:17.254Z,8.90
2022-12-18T11:34:11.954Z,9.60
2022-12-18T11:36:37.851Z,7.53
2022-12-18T11:39:10.591Z,5.33
2022-12-18T11:41:40.608Z,7.30
2022-12-18T11:44:09.636Z,8.40
2022-12-18T11:46:38.563Z,7.93
2022-12-18T11:49:09.295Z,8.87
2022-12-18T11:51:39.172Z,6.90
2022-12-18T11:54:13.224Z,7.90
2022-12-18T11:56:43.751Z,9.40
2022-12-18T11:59:17.697Z,9.70
2022-12-18T12:01:50.375Z,10.73
2022-12-18T12:04:35.532Z,7.30
2022-12-18T12:07:07.148Z,9.50
2022-12-18T12:09:38.151Z,9.87
2022-12-18T12:12:12.189Z,9.60
2022-12-18T12:14:49.341Z,7.13
2022-12-18T12:17:22.249Z,11.00
2022-12-18T12:19:51.392Z,9.17
2022-12-18T12:22:25.516Z,11.13
2022-12-18T12:25:01.112Z,9.13
2022-12-18T12:27:34.989Z,11.40
2022-12-18T12:30:04.850Z,9.80
2022-12-18T12:32:39.138Z,9.37
2022-12-18T12:35:11.466Z,9.97
2022-12-18T12:37:43.064Z,8.93
2022-12-18T12:40:48.340Z,8.13
2022-12-18T12:43:02.677Z,8.77
2022-12-18T12:45:30.975Z,9.10
2022-12-18T12:47:59.339Z,8.80
2022-12-18T12:50:26.819Z,9.87
2022-12-18T12:52:57.241Z,10.40
2022-12-18T12:55:25.439Z,8.53
2022-12-18T12:57:57.915Z,11.13
2022-12-18T13:00:27.328Z,11.47
2022-12-18T13:02:58.398Z,9.30
2022-12-18T13:05:27.363Z,12.83
2022-12-18T13:07:58.528Z,12.73
2022-12-18T13:10:36.115Z,12.77
2022-12-18T13:13:05.112Z,12.50
2022-12-18T13:15:38.612Z,10.87
2022-12-18T13:18:12.186Z,10.13
2022-12-18T13:20:40.009Z,9.97
2022-12-18T13:23:27.232Z,10.23
2022-12-18T13:25:54.788Z,11.67
2022-12-18T13:28:22.791Z,13.40
2022-12-18T13:30:55.871Z,9.77
2022-12-18T13:34:24.657Z,12.80
2022-12-18T13:36:38.445Z,7.00
2022-12-18T13:39:12.544Z,11.30
2022-12-18T13:41:39.704Z,9.17
2022-12-18T13:44:13.723Z,12.83
2022-12-18T13:46:44.687Z,10.20
2022-12-18T13:49:20.661Z,9.17
2022-12-18T13:51:49.417Z,11.30
2022-12-18T13:54:21.040Z,10.20
2022-12-18T13:56:48.992Z,12.67
2022-12-18T13:59:24.562Z,11.20
2022-12-18T14:01:53.745Z,10.50
2022-12-18T14:04:25.878Z,10.47
2022-12-18T14:06:54.675Z,9.93
2022-12-18T14:09:25.978Z,8.23
2022-12-18T14:11:54.119Z,12.80
2022-12-18T14:14:21.337Z,15.50
2022-12-18T14:16:48.902Z,11.33
2022-12-18T14:19:17.557Z,11.77
2022-12-18T14:21:47.304Z,11.97
2022-12-18T14:24:15.593Z,14.00
2022-12-18T14:26:48.589Z,11.87
2022-12-18T14:29:22.576Z,15.67
2022-12-18T14:32:04.552Z,14.77
2022-12-18T14:34:31.646Z,12.93
2022-12-18T14:36:58.758Z,13.13
2022-12-18T14:39:25.899Z,13.00
2022-12-18T14:41:55.322Z,11.90
2022-12-18T14:44:23.194Z,12.30
2022-12-18T14:46:51.091Z,11.90
2022-12-18T14:49:23.156Z,12.23
2022-12-18T14:51:51.110Z,9.57
2022-12-18T14:54:19.366Z,11.87
2022-12-18T14:56:47.631Z,9.13
2022-12-18T14:59:23.859Z,15.50
2022-12-18T15:01:58.184Z,12.43
2022-12-18T15:04:27.854Z,9.23
2022-12-18T15:07:06.380Z,14.10
2022-12-18T15:09:33.500Z,11.43
2022-12-18T15:12:01.712Z,12.97
2022-12-18T15:14:40.417Z,11.23
2022-12-18T15:17:08.511Z,11.53
2022-12-18T15:19:38.900Z,13.13
2022-12-18T15:22:06.775Z,13.93
2022-12-18T15:24:34.347Z,14.93
2022-12-18T15:27:01.654Z,13.90
2022-12-18T15:29:28.768Z,10.37
2022-12-18T15:32:04.827Z,11.43
2022-12-18T15:34:32.904Z,12.83
2022-12-18T15:37:00.010Z,14.30
2022-12-18T15:39:27.114Z,11.83
2022-12-18T15:41:54.237Z,11.37
2022-12-18T15:44:23.830Z,14.03
2022-12-18T15:46:51.009Z,12.67
2022-12-18T15:49:19.489Z,11.43
2022-12-18T15:51:48.116Z,15.90
2022-12-18T15:54:16.349Z,15.50
2022-12-18T15:56:43.448Z,12.13
2022-12-18T15:59:11.632Z,15.80
2022-12-18T16:01:42.411Z,10.70
2022-12-18T16:04:10.678Z,10.57
2022-12-18T16:07:05.405Z,14.40
2022-12-18T16:09:26.398Z,13.20
2022-12-18T16:11:53.890Z,14.90
2022-12-18T16:14:21.921Z,14.77
2022-12-18T16:16:50.868Z,12.70
2022-12-18T16:19:18.038Z,16.63
2022-12-18T16:21:47.308Z,14.40
2022-12-18T16:24:16.793Z,19.37
2022-12-18T16:26:43.983Z,15.93
2022-12-18T16:29:11.184Z,17.47
2022-12-18T16:31:39.264Z,16.83
2022-12-18T16:34:13.075Z,8.87
2022-12-18T16:36:40.215Z,13.93
2022-12-18T16:39:08.690Z,17.77
2022-12-18T16:41:35.816Z,18.70
2022-12-18T16:44:03.287Z,12.30
2022-12-18T16:46:30.459Z,11.10
2022-12-18T16:48:58.409Z,15.30
2022-12-18T16:51:25.580Z,11.50
2022-12-18T16:53:52.709Z,15.57
2022-12-18T16:56:21.391Z,13.63
2022-12-18T16:58:51.494Z,17.10
2022-12-18T17:01:18.704Z,19.40
2022-12-18T17:03:46.693Z,17.80
2022-12-18T17:06:15.452Z,15.83
2022-12-18T17:08:44.057Z,15.87
2022-12-18T17:11:11.500Z,14.47
2022-12-18T17:13:40.317Z,17.37
2022-12-18T17:16:08.245Z,16.60
2022-12-18T17:18:35.880Z,17.37
2022-12-18T17:21:03.553Z,17.87
2022-12-18T17:23:31.050Z,17.97
2022-12-18T17:25:58.996Z,14.90
2022-12-18T17:28:26.217Z,19.47
2022-12-18T17:30:55.443Z,17.17
2022-12-18T17:33:23.014Z,16.60
2022-12-18T17:35:50.174Z,12.57
2022-12-18T17:38:17.640Z,16.03
2022-12-18T17:40:46.572Z,14.40
2022-12-18T17:43:13.950Z,19.60
2022-12-18T17:45:41.123Z,19.10
2022-12-18T17:48:09.835Z,12.00
2022-12-18T17:50:37.026Z,16.53
2022-12-18T17:53:04.108Z,21.67
2022-12-18T17:55:31.246Z,19.70
2022-12-18T17:57:58.336Z,18.30
2022-12-18T18:00:25.453Z,13.30
2022-12-18T18:02:52.697Z,17.07
2022-12-18T18:05:21.362Z,18.30
2022-12-18T18:07:49.591Z,14.10
2022-12-18T18:10:17.228Z,15.97
2022-12-18T18:12:44.294Z,10.30
2022-12-18T18:15:11.547Z,19.67
2022-12-18T18:17:38.768Z,19.67
2022-12-18T18:20:06.195Z,15.50
2022-12-18T18:22:34.885Z,21.40
2022-12-18T18:25:01.979Z,22.00
2022-12-18T18:27:32.720Z,21.77
2022-12-18T18:30:04.301Z,18.67
2022-12-18T18:32:31.455Z,14.33
2022-12-18T18:34:58.532Z,20.70
2022-12-18T18:37:25.634Z,19.47
2022-12-18T18:39:54.140Z,20.20
2022-12-18T18:42:21.241Z,15.47
2022-12-18T18:44:49.172Z,15.20
2022-12-18T18:47:16.352Z,17.67
2022-12-18T18:49:43.428Z,12.90
2022-12-18T18:52:10.494Z,20.40
2022-12-18T18:54:37.597Z,23.57
2022-12-18T18:57:24.270Z,18.57
2022-12-18T18:59:53.150Z,20.80
2022-12-18T19:02:20.322Z,16.07
2022-12-18T19:04:47.583Z,18.33
2022-12-18T19:07:29.411Z,16.27
2022-12-18T19:10:03.997Z,19.07
2022-12-18T19:12:33.527Z,21.67
2022-12-18T19:15:00.657Z,10.87
2022-12-18T19:17:30.537Z,16.80
2022-12-18T19:19:57.847Z,14.10
2022-12-18T19:22:24.970Z,16.03
2022-12-18T19:24:52.052Z,16.27
2022-12-18T19:27:19.137Z,17.60
2022-12-18T19:29:49.143Z,15.73
2022-12-18T19:32:16.289Z,17.80
2022-12-18T19:34:43.499Z,18.37
2022-12-18T19:37:12.938Z,18.80
2022-12-18T19:39:40.190Z,12.60
2022-12-18T19:42:07.265Z,18.57
2022-12-18T19:44:34.369Z,20.90
2022-12-18T19:47:02.781Z,11.03
2022-12-18T19:49:29.886Z,14.70
2022-12-18T19:51:57.259Z,20.13
2022-12-18T19:54:24.439Z,17.60
2022-12-18T19:56:53.419Z,17.10
2022-12-18T19:59:20.524Z,16.47
2022-12-18T20:01:47.883Z,20.20
2022-12-18T20:04:16.648Z,21.47
2022-12-18T20:06:47.826Z,14.20
2022-12-18T20:09:15.375Z,18.43
2022-12-18T20:11:42.717Z,16.77
2022-12-18T20:14:10.318Z,14.57
2022-12-18T20:16:37.586Z,18.90
2022-12-18T20:19:05.061Z,16.03
2022-12-18T20:21:33.607Z,14.97
2022-12-18T20:24:00.785Z,16.90
2022-12-18T20:26:27.993Z,16.27
2022-12-18T20:28:55.438Z,23.43
2022-12-18T20:31:22.990Z,16.97
2022-12-18T20:33:52.048Z,17.17
2022-12-18T20:36:22.563Z,14.70
2022-12-18T20:38:52.417Z,20.27
2022-12-18T20:41:24.215Z,17.97
2022-12-18T20:43:51.684Z,20.97
2022-12-18T20:46:18.928Z,17.10
2022-12-18T20:48:46.244Z,16.50
2022-12-18T20:51:14.374Z,18.67
2022-12-18T20:53:42.596Z,19.47
2022-12-18T20:56:13.244Z,16.43
2022-12-18T20:58:43.753Z,15.20
2022-12-18T21:01:11.734Z,21.93
2022-12-18T21:03:39.317Z,18.53
2022-12-18T21:06:07.011Z,14.07
2022-12-18T21:08:34.421Z,13.50
2022-12-18T21:11:13.970Z,17.60
2022-12-18T21:13:41.528Z,19.90
2022-12-18T21:16:08.563Z,17.13
2022-12-18T21:18:37.636Z,15.30
2022-12-18T21:21:04.999Z,17.20
2022-12-18T21:23:35.429Z,18.50
2022-12-18T21:26:16.626Z,14.23
2022-12-18T21:28:43.774Z,16.00
2022-12-18T21:31:11.188Z,21.53
2022-12-18T21:33:39.129Z,16.70
2022-12-18T21:36:06.705Z,17.30
2022-12-18T21:38:33.855Z,20.30
2022-12-18T21:41:00.969Z,18.03
2022-12-18T21:43:29.397Z,17.23
2022-12-18T21:45:56.566Z,19.73
2022-12-18T21:48:25.763Z,20.53
2022-12-18T21:50:52.833Z,20.13
2022-12-18T21:53:19.961Z,19.37
2022-12-18T21:55:47.072Z,11.97
2022-12-18T21:58:14.300Z,13.60
2022-12-18T22:00:48.354Z,11.30
2022-12-18T22:03:18.331Z,20.00
2022-12-18T22:05:46.388Z,16.50
2022-12-18T22:08:16.836Z,23.90
2022-12-18T22:10:44.265Z,24.23
2022-12-18T22:13:11.449Z,22.20
2022-12-18T22:15:38.556Z,18.47
2022-12-18T22:18:07.079Z,17.50
2022-12-18T22:20:34.248Z,18.53
2022-12-18T22:23:05.760Z,21.17
2022-12-18T22:25:33.476Z,18.30
2022-12-18T22:28:02.314Z,22.30
2022-12-18T22:30:29.401Z,22.10
2022-12-18T22:32:56.512Z,19.80
2022-12-18T22:35:25.004Z,27.37
2022-12-18T22:37:52.090Z,22.57
2022-12-18T22:40:23.849Z,18.10
2022-12-18T22:42:51.817Z,18.80
2022-12-18T22:45:19.846Z,20.13
2022-12-18T22:47:46.994Z,16.20
2022-12-18T22:50:14.853Z,12.37
2022-12-18T22:52:43.322Z,21.57
2022-12-18T22:55:10.486Z,19.60
2022-12-18T22:57:37.557Z,20.83
2022-12-18T23:00:06.921Z,18.17
2022-12-18T23:02:34.204Z,15.63
2022-12-18T23:05:01.388Z,18.90
2022-12-18T23:07:28.495Z,14.07
2022-12-18T23:10:00.710Z,22.63
2022-12-18T23:12:28.512Z,15.57
2022-12-18T23:14:55.914Z,18.80
2022-12-18T23:17:23.025Z,23.30
2022-12-18T23:19:50.151Z,20.40
2022-12-18T23:22:17.283Z,24.20
2022-12-18T23:24:44.377Z,20.07
2022-12-18T23:27:12.851Z,20.07
2022-12-18T23:29:40.088Z,21.60
2022-12-18T23:32:07.238Z,18.90
2022-12-18T23:34:34.392Z,20.97
2022-12-18T23:37:01.539Z,12.57
2022-12-18T23:39:30.290Z,21.03
2022-12-18T23:41:57.660Z,17.10
2022-12-18T23:44:26.191Z,21.73
2022-12-18T23:46:53.374Z,15.90
2022-12-18T23:49:20.540Z,19.60
2022-12-18T23:51:47.644Z,18.47
2022-12-18T23:54:14.954Z,12.60
2022-12-18T23:56:42.089Z,20.13
2022-12-18T23:59:09.297Z,23.33
